Time;durP1;ratioP1;P1;durP2;ratioP2;P2;SDS_P1;SDS_P2;PMS_P1;PMS_P2;Temp;Humidity;BMP_temperature;BMP_pressure;BME280_temperature;BME280_humidity;BME280_pressure;Samples;Min_cycle;Max_cycle;Signal;HPM_P1;HPM_P2
2022/11/20 00:02:17;;;;;;;26.17;14.10;;;;;;;-1.69;80.76;100782.02;1792624;80;21561;-71
2022/11/20 00:04:46;;;;;;;27.45;14.53;;;;;;;-1.70;80.92;100796.42;1792346;80;21138;-76
2022/11/20 00:07:15;;;;;;;29.42;15.05;;;;;;;-1.70;81.09;100808.52;1792234;80;21086;-72
2022/11/20 00:09:44;;;;;;;28.90;14.35;;;;;;;-1.71;81.21;100821.56;1792428;80;21170;-71
2022/11/20 00:12:13;;;;;;;31.65;15.95;;;;;;;-1.75;81.31;100825.44;1792406;80;21186;-71
2022/11/20 00:14:42;;;;;;;31.80;15.90;;;;;;;-1.74;81.37;100835.70;1792592;80;21118;-72
2022/11/20 00:17:11;;;;;;;34.73;15.98;;;;;;;-1.73;81.46;100825.33;1792491;80;21157;-72
2022/11/20 00:19:40;;;;;;;30.90;15.40;;;;;;;-1.72;81.53;100817.64;1792451;80;21537;-71
2022/11/20 00:22:09;;;;;;;33.92;14.75;;;;;;;-1.74;81.27;100812.86;1792741;80;21118;-72
2022/11/20 00:24:39;;;;;;;32.08;14.23;;;;;;;-1.84;80.88;100815.83;1792711;80;21559;-71
2022/11/20 00:27:10;;;;;;;30.97;16.85;;;;;;;-1.94;80.97;100818.30;1792577;80;21616;-72
2022/11/20 00:29:40;;;;;;;31.62;16.17;;;;;;;-1.94;81.36;100815.13;1792559;80;21098;-71
2022/11/20 00:32:10;;;;;;;31.97;14.98;;;;;;;-1.93;81.51;100818.20;1792436;80;21137;-71
2022/11/20 00:34:41;;;;;;;29.55;14.25;;;;;;;-1.93;81.46;100831.62;1792452;79;21146;-71
2022/11/20 00:37:10;;;;;;;26.93;14.10;;;;;;;-1.96;81.32;100845.71;1792471;80;21101;-72
2022/11/20 00:39:40;;;;;;;29.67;14.85;;;;;;;-1.98;81.32;100854.36;1792460;80;21118;-72
2022/11/20 00:42:09;;;;;;;28.42;13.90;;;;;;;-2.05;81.21;100859.78;1792525;80;21086;-71
2022/11/20 00:44:39;;;;;;;29.20;14.58;;;;;;;-2.14;81.23;100857.73;1792717;80;21597;-72
2022/11/20 00:47:09;;;;;;;34.00;15.28;;;;;;;-2.16;81.50;100848.92;1792327;80;21217;-71
2022/11/20 00:49:38;;;;;;;34.50;14.63;;;;;;;-2.15;81.81;100848.81;1792515;80;21122;-71
2022/11/20 00:52:08;;;;;;;27.52;14.00;;;;;;;-2.11;81.99;100842.27;1792402;80;21615;-71
2022/11/20 00:54:38;;;;;;;28.25;13.83;;;;;;;-2.14;81.75;100842.96;1792439;80;21171;-71
2022/11/20 00:57:07;;;;;;;28.10;14.15;;;;;;;-2.19;81.88;100844.63;1792480;80;21205;-71
2022/11/20 00:59:36;;;;;;;29.42;15.35;;;;;;;-2.20;82.02;100847.41;1792469;80;21114;-70
2022/11/20 01:02:05;;;;;;;27.87;14.38;;;;;;;-2.19;82.20;100837.91;1792537;80;21154;-70
2022/11/20 01:04:34;;;;;;;31.87;15.13;;;;;;;-2.19;82.14;100829.86;1792298;80;21166;-69
2022/11/20 01:07:03;;;;;;;28.92;13.88;;;;;;;-2.24;82.25;100826.16;1792522;80;21568;-70
2022/11/20 01:09:33;;;;;;;28.05;14.10;;;;;;;-2.25;82.40;100819.55;1792549;80;21161;-70
2022/11/20 01:12:04;;;;;;;30.32;13.95;;;;;;;-2.23;82.44;100820.30;1792534;80;21150;-70
2022/11/20 01:14:33;;;;;;;31.37;14.50;;;;;;;-2.26;82.41;100822.71;1792422;80;21155;-68
2022/11/20 01:17:03;;;;;;;41.25;17.92;;;;;;;-2.29;82.49;100833.66;1792375;80;21260;-69
2022/11/20 01:19:32;;;;;;;45.60;19.17;;;;;;;-2.30;82.54;100829.26;1792500;80;21150;-69
2022/11/20 01:22:01;;;;;;;42.73;17.92;;;;;;;-2.31;82.52;100838.27;1792450;80;21309;-70
2022/11/20 01:24:31;;;;;;;39.65;16.87;;;;;;;-2.36;82.65;100835.05;1792502;80;21138;-71
2022/11/20 01:27:00;;;;;;;31.48;15.30;;;;;;;-2.39;82.67;100835.25;1792432;80;21111;-70
2022/11/20 01:29:30;;;;;;;31.00;13.95;;;;;;;-2.41;82.79;100825.11;1792379;80;21094;-71
2022/11/20 01:31:59;;;;;;;34.48;15.00;;;;;;;-2.42;82.91;100819.84;1792441;80;21220;-70
2022/11/20 01:34:28;;;;;;;33.75;15.05;;;;;;;-2.43;83.08;100820.81;1792372;80;21145;-71
2022/11/20 01:36:57;;;;;;;39.53;18.23;;;;;;;-2.41;83.21;100825.11;1766564;80;21173;-71
2022/11/20 01:39:27;;;;;;;26.75;13.58;;;;;;;-2.38;83.24;100819.53;1792497;80;21189;-71
2022/11/20 01:44:56;;;;;;;31.23;14.15;;;;;;;-2.34;83.27;100825.06;1792714;80;21565;-70
2022/11/20 01:47:41;;;;;;;33.88;15.45;;;;;;;-2.33;83.34;100838.86;1762776;80;21165;-71
2022/11/20 01:50:17;;;;;;;32.67;15.28;;;;;;;-2.35;83.32;100842.12;1792470;80;21541;-73
2022/11/20 01:52:56;;;;;;;28.87;13.35;;;;;;;-2.38;83.54;100841.48;1792487;80;21180;-70
2022/11/20 01:55:33;;;;;;;27.05;13.72;;;;;;;-2.38;83.76;100844.16;1792442;80;21110;-72
2022/11/20 01:58:02;;;;;;;29.35;13.08;;;;;;;-2.35;83.89;100848.84;1792811;80;21266;-70
2022/11/20 02:00:31;;;;;;;29.27;13.18;;;;;;;-2.34;83.97;100846.53;1792483;80;21090;-71
2022/11/20 02:03:08;;;;;;;31.45;14.70;;;;;;;-2.32;84.04;100845.95;1792349;80;21208;-71
2022/11/20 02:06:19;;;;;;;30.45;15.18;;;;;;;-2.30;84.10;100841.81;1784584;80;21580;-73
2022/11/20 02:08:48;;;;;;;32.13;14.73;;;;;;;-2.31;84.09;100851.69;1780539;80;21122;-72
2022/11/20 02:11:18;;;;;;;40.05;16.82;;;;;;;-2.31;84.24;100865.11;1774736;80;21499;-71
2022/11/20 02:13:48;;;;;;;36.13;16.80;;;;;;;-2.29;84.32;100870.38;1785234;80;21114;-71
2022/11/20 02:16:26;;;;;;;37.45;16.90;;;;;;;-2.28;84.31;100862.70;1768693;80;21171;-72
2022/11/20 02:18:56;;;;;;;37.60;16.50;;;;;;;-2.29;84.32;100848.91;1778879;80;21146;-72
2022/11/20 02:21:40;;;;;;;32.55;15.10;;;;;;;-2.28;84.46;100843.43;1780400;80;21102;-71
2022/11/20 02:24:18;;;;;;;36.83;16.48;;;;;;;-2.26;84.54;100862.11;1768107;80;21181;-72
2022/11/20 02:27:02;;;;;;;31.70;15.08;;;;;;;-2.24;84.55;100869.58;1788641;80;21150;-71
2022/11/20 02:29:42;;;;;;;32.40;14.75;;;;;;;-2.22;84.61;100868.98;1777033;80;21074;-71
2022/11/20 02:32:34;;;;;;;29.95;13.98;;;;;;;-2.21;84.68;100866.69;1778401;80;21126;-72
2022/11/20 02:35:22;;;;;;;32.33;15.15;;;;;;;-2.20;84.73;100867.06;1777238;80;21169;-72
2022/11/20 02:37:54;;;;;;;21.82;10.43;;;;;;;-2.19;84.79;100867.92;1772058;80;21149;-74
2022/11/20 02:40:23;;;;;;;31.48;13.93;;;;;;;-2.19;84.85;100868.78;1764502;80;21617;-71
2022/11/20 02:42:54;;;;;;;34.15;16.48;;;;;;;-2.18;84.92;100854.88;1744165;80;21147;-70
2022/11/20 02:45:23;;;;;;;35.00;17.70;;;;;;;-2.14;84.96;100863.09;1764834;80;21111;-72
2022/11/20 02:47:54;;;;;;;32.90;16.37;;;;;;;-2.15;84.99;100858.21;1768282;80;21142;-72
2022/11/20 02:50:23;;;;;;;36.40;16.93;;;;;;;-2.12;84.99;100863.84;1764730;80;21134;-72
2022/11/20 02:52:52;;;;;;;35.50;16.82;;;;;;;-2.11;84.91;100865.09;1783550;80;21106;-72
2022/11/20 02:55:22;;;;;;;32.17;15.70;;;;;;;-2.09;84.94;100856.92;1777489;80;21144;-72
2022/11/20 02:57:52;;;;;;;37.25;16.45;;;;;;;-2.05;84.95;100851.72;1768276;80;21133;-73
2022/11/20 03:00:21;;;;;;;32.60;15.15;;;;;;;-2.02;85.04;100851.51;1777398;80;21631;-73
2022/11/20 03:02:51;;;;;;;32.85;15.05;;;;;;;-2.02;85.09;100855.05;1764107;80;21127;-72
2022/11/20 03:05:20;;;;;;;30.30;14.80;;;;;;;-2.02;84.94;100862.25;1770269;80;21145;-73
2022/11/20 03:07:49;;;;;;;32.42;14.65;;;;;;;-2.06;84.93;100864.77;1782982;80;21091;-72
2022/11/20 03:10:19;;;;;;;28.90;13.78;;;;;;;-2.09;84.95;100869.87;1775691;80;21154;-73
2022/11/20 03:12:58;;;;;;;30.65;14.03;;;;;;;-2.08;85.03;100872.07;1774248;80;21529;-73
2022/11/20 03:15:27;;;;;;;28.02;13.48;;;;;;;-2.07;85.05;100870.63;1780510;80;21609;-73
2022/11/20 03:17:56;;;;;;;28.95;13.30;;;;;;;-2.07;85.00;100872.45;1782792;80;21114;-72
2022/11/20 03:20:25;;;;;;;36.03;16.57;;;;;;;-2.08;84.98;100870.73;1777758;80;21138;-74
2022/11/20 03:22:55;;;;;;;33.40;16.35;;;;;;;-2.08;84.99;100879.64;1777194;80;21787;-73
2022/11/20 03:25:23;;;;;;;35.45;16.87;;;;;;;-2.05;85.11;100894.67;1777366;80;21154;-73
2022/11/20 03:27:52;;;;;;;31.50;15.58;;;;;;;-2.03;85.13;100900.31;1777311;80;21114;-72
2022/11/20 03:30:22;;;;;;;30.15;14.80;;;;;;;-2.02;85.13;100898.50;1755552;80;21142;-73
2022/11/20 03:32:54;;;;;;;30.45;14.33;;;;;;;-2.01;85.22;100904.24;1756220;80;21114;-74
2022/11/20 03:35:24;;;;;;;33.10;16.40;;;;;;;-2.01;85.08;100908.27;1779889;80;21619;-72
2022/11/20 03:37:53;;;;;;;32.38;15.23;;;;;;;-2.04;85.09;100887.86;1773272;80;21149;-71
2022/11/20 03:40:22;;;;;;;33.70;16.12;;;;;;;-2.03;85.19;100890.92;1780880;80;21565;-74
2022/11/20 03:42:51;;;;;;;32.50;15.63;;;;;;;-2.01;85.14;100891.68;1768257;80;21180;-72
2022/11/20 03:45:20;;;;;;;28.83;14.47;;;;;;;-2.00;85.07;100881.80;1780640;80;21197;-74
2022/11/20 03:47:49;;;;;;;29.67;15.08;;;;;;;-2.01;85.05;100880.94;1764665;80;21138;-73
2022/11/20 03:50:18;;;;;;;31.87;14.30;;;;;;;-2.01;84.99;100887.66;1784870;80;21530;-71
2022/11/20 03:52:47;;;;;;;36.75;14.95;;;;;;;-1.99;84.95;100886.20;1777762;80;21158;-73
2022/11/20 03:55:16;;;;;;;30.95;14.90;;;;;;;-2.01;85.00;100882.77;1768739;80;21198;-73
2022/11/20 03:57:45;;;;;;;30.92;15.30;;;;;;;-2.02;85.07;100875.19;1768365;80;21122;-72
2022/11/20 04:00:16;;;;;;;31.60;14.70;;;;;;;-2.00;85.11;100881.80;1783614;80;21142;-73
2022/11/20 04:02:47;;;;;;;33.50;15.50;;;;;;;-2.01;85.13;100876.05;1779988;80;21106;-76
2022/11/20 04:05:16;;;;;;;31.62;14.87;;;;;;;-2.01;85.23;100878.25;1788988;80;21154;-74
2022/11/20 04:07:45;;;;;;;30.52;14.25;;;;;;;-2.02;85.18;100878.36;1792094;80;21154;-73
2022/11/20 04:10:15;;;;;;;25.77;13.83;;;;;;;-2.04;85.21;100877.61;1792453;80;21122;-73
2022/11/20 04:12:45;;;;;;;33.00;15.63;;;;;;;-2.04;85.21;100878.95;1792310;80;21608;-72
2022/11/20 04:15:14;;;;;;;28.85;14.15;;;;;;;-2.05;85.20;100874.54;1792393;80;21130;-73
2022/11/20 04:17:44;;;;;;;30.82;14.30;;;;;;;-2.10;85.13;100872.66;1792501;80;21626;-73
2022/11/20 04:20:14;;;;;;;35.43;16.97;;;;;;;-2.13;85.26;100878.23;1792414;80;21075;-73
2022/11/20 04:22:43;;;;;;;42.43;19.15;;;;;;;-2.12;85.42;100883.98;1792330;80;21173;-74
2022/11/20 04:25:12;;;;;;;53.52;23.45;;;;;;;-2.09;85.53;100881.95;1792376;80;21118;-72
2022/11/20 04:27:43;;;;;;;74.32;30.88;;;;;;;-2.06;85.55;100880.87;1792394;80;21137;-75
2022/11/20 04:30:13;;;;;;;121.82;43.45;;;;;;;-2.04;85.58;100882.97;1792370;80;21572;-73
2022/11/20 04:32:43;;;;;;;132.93;45.33;;;;;;;-2.03;85.61;100874.81;1792350;80;21185;-72
2022/11/20 04:35:13;;;;;;;121.20;43.38;;;;;;;-2.01;85.62;100870.20;1779908;80;21648;-72
2022/11/20 04:37:42;;;;;;;137.30;48.02;;;;;;;-2.01;85.60;100863.97;1792437;80;21122;-72
2022/11/20 04:40:12;;;;;;;110.85;44.15;;;;;;;-2.02;85.64;100858.22;1792436;80;21538;-71
2022/11/20 04:42:41;;;;;;;105.47;42.20;;;;;;;-2.03;85.71;100856.50;1792329;80;21583;-74
2022/11/20 04:45:10;;;;;;;68.87;29.57;;;;;;;-2.04;85.84;100848.94;1792285;80;21776;-73
2022/11/20 04:47:40;;;;;;;63.33;26.02;;;;;;;-2.02;85.95;100842.97;1792361;80;21114;-72
2022/11/20 04:50:10;;;;;;;50.98;22.98;;;;;;;-2.00;85.99;100839.70;1792450;80;21209;-73
2022/11/20 04:52:39;;;;;;;42.23;21.12;;;;;;;-1.98;86.00;100828.84;1792379;80;21144;-73
2022/11/20 04:55:08;;;;;;;37.40;18.98;;;;;;;-1.97;85.99;100829.23;1792298;80;21150;-72
2022/11/20 04:57:38;;;;;;;37.67;18.62;;;;;;;-1.97;86.03;100822.52;1792370;80;21181;-73
2022/11/20 05:00:09;;;;;;;36.03;16.77;;;;;;;-1.93;86.13;100816.00;1792292;80;21169;-73
2022/11/20 05:02:39;;;;;;;34.23;15.90;;;;;;;-1.94;86.06;100809.77;1792409;80;21216;-73
2022/11/20 05:05:10;;;;;;;36.05;17.98;;;;;;;-1.92;86.12;100814.55;1792248;80;21134;-73
2022/11/20 05:07:40;;;;;;;36.93;18.77;;;;;;;-1.90;86.05;100809.06;1783898;80;21134;-74
2022/11/20 05:10:10;;;;;;;37.67;20.00;;;;;;;-1.92;85.98;100806.97;1777066;80;21141;-73
2022/11/20 05:12:39;;;;;;;39.50;18.62;;;;;;;-1.92;85.96;100797.09;1753773;80;21201;-71
2022/11/20 05:15:09;;;;;;;36.80;18.05;;;;;;;-1.98;85.92;100800.17;1772326;80;21122;-72
2022/11/20 05:17:40;;;;;;;37.38;17.90;;;;;;;-2.02;85.94;100801.84;1783923;80;21522;-73
2022/11/20 05:20:11;;;;;;;37.75;18.30;;;;;;;-2.03;86.14;100809.52;1777863;80;21739;-72
2022/11/20 05:22:42;;;;;;;41.65;19.27;;;;;;;-1.98;86.33;100818.97;1780550;80;21534;-74
2022/11/20 05:25:11;;;;;;;37.75;17.48;;;;;;;-1.95;86.44;100820.13;1772283;80;21581;-75
2022/11/20 05:27:42;;;;;;;37.63;17.62;;;;;;;-1.90;86.44;100815.78;1780648;80;21141;-73
2022/11/20 05:30:14;;;;;;;32.10;16.10;;;;;;;-1.89;86.37;100802.73;1779758;80;21149;-73
2022/11/20 05:32:44;;;;;;;39.67;18.50;;;;;;;-1.88;86.42;100789.67;1777250;80;21222;-73
2022/11/20 05:35:13;;;;;;;37.48;17.42;;;;;;;-1.85;86.38;100781.89;1768210;80;21169;-74
2022/11/20 05:37:43;;;;;;;35.75;17.48;;;;;;;-1.83;86.31;100776.78;1738600;80;21154;-75
2022/11/20 05:40:13;;;;;;;40.85;17.40;;;;;;;-1.81;86.28;100788.27;1775811;80;21146;-76
2022/11/20 05:42:43;;;;;;;35.35;16.82;;;;;;;-1.78;86.36;100785.37;1785403;80;21165;-73
2022/11/20 05:45:12;;;;;;;37.20;18.20;;;;;;;-1.76;86.26;100787.45;1768219;80;21118;-74
2022/11/20 05:47:42;;;;;;;42.40;18.23;;;;;;;-1.77;86.26;100785.74;1779175;80;21138;-75
2022/11/20 05:50:11;;;;;;;36.30;18.12;;;;;;;-1.74;86.31;100786.87;1780655;80;21623;-73
2022/11/20 05:52:41;;;;;;;41.90;20.10;;;;;;;-1.71;86.26;100785.30;1785774;80;21098;-73
2022/11/20 05:55:10;;;;;;;40.50;18.30;;;;;;;-1.73;86.20;100807.39;1776160;80;21122;-73
2022/11/20 05:57:39;;;;;;;41.73;18.80;;;;;;;-1.70;86.31;100804.96;1779974;80;21522;-74
2022/11/20 06:00:09;;;;;;;37.93;18.25;;;;;;;-1.69;86.36;100799.48;1747634;81;21191;-72
2022/11/20 06:02:39;;;;;;;45.70;21.50;;;;;;;-1.69;86.36;100795.94;1791535;79;21188;-73
2022/11/20 06:05:09;;;;;;;39.25;17.62;;;;;;;-1.69;86.53;100799.48;1782163;80;21142;-74
2022/11/20 06:07:38;;;;;;;38.75;17.17;;;;;;;-1.63;86.74;100799.52;1781350;80;21102;-75
2022/11/20 06:10:09;;;;;;;40.60;17.00;;;;;;;-1.57;86.85;100800.91;1747813;81;21190;-75
2022/11/20 06:12:39;;;;;;;48.92;20.92;;;;;;;-1.53;86.93;100805.09;1763512;81;21114;-74
2022/11/20 06:15:10;;;;;;;45.05;20.30;;;;;;;-1.48;86.90;100802.94;1763847;81;21126;-71
2022/11/20 06:17:41;;;;;;;43.40;19.15;;;;;;;-1.48;86.91;100804.28;1749608;81;21137;-74
2022/11/20 06:20:11;;;;;;;40.92;19.77;;;;;;;-1.45;86.99;100805.40;1748634;80;21146;-74
2022/11/20 06:22:42;;;;;;;39.67;18.82;;;;;;;-1.44;86.98;100804.43;1757371;81;21107;-73
2022/11/20 06:25:11;;;;;;;46.70;20.45;;;;;;;-1.43;87.02;100795.40;1760724;80;21170;-73
2022/11/20 06:27:40;;;;;;;40.08;19.60;;;;;;;-1.39;87.11;100799.09;1779242;80;21106;-74
2022/11/20 06:30:11;;;;;;;45.58;20.10;;;;;;;-1.35;87.14;100801.93;1763289;81;21114;-73
2022/11/20 06:32:40;;;;;;;41.92;19.95;;;;;;;-1.32;87.12;100806.22;1756986;81;21126;-72
2022/11/20 06:35:10;;;;;;;40.67;19.77;;;;;;;-1.32;87.03;100798.16;1741763;81;21147;-74
2022/11/20 06:37:40;;;;;;;42.40;18.73;;;;;;;-1.31;87.05;100802.08;1743293;81;21115;-74
2022/11/20 06:40:11;;;;;;;32.05;16.80;;;;;;;-1.28;87.19;100802.38;1774260;80;21095;-71
2022/11/20 06:42:41;;;;;;;26.82;13.18;;;;;;;-1.22;87.21;100792.52;1786058;80;21515;-71
2022/11/20 06:45:11;;;;;;;28.85;14.93;;;;;;;-1.17;86.98;100778.25;1772055;80;21106;-72
2022/11/20 06:47:41;;;;;;;26.73;13.75;;;;;;;-1.11;86.81;100776.45;1761465;80;21161;-74
2022/11/20 06:50:13;;;;;;;25.27;13.65;;;;;;;-1.05;86.53;100783.20;1786880;80;21114;-75
2022/11/20 06:52:42;;;;;;;25.43;12.85;;;;;;;-1.00;86.19;100781.89;1771864;80;21121;-74
2022/11/20 06:55:12;;;;;;;27.00;13.68;;;;;;;-0.94;85.87;100780.56;1784736;80;21609;-72
2022/11/20 06:57:42;;;;;;;27.17;12.40;;;;;;;-0.90;85.46;100783.89;1761490;81;21182;-73
2022/11/20 07:00:13;;;;;;;24.32;13.20;;;;;;;-0.89;84.85;100788.30;1782235;80;21614;-75
2022/11/20 07:02:42;;;;;;;28.20;13.40;;;;;;;-0.87;84.53;100791.23;1782337;80;21150;-75
2022/11/20 07:05:12;;;;;;;24.40;11.88;;;;;;;-0.85;84.21;100779.02;1739742;81;21130;-74
2022/11/20 07:07:41;;;;;;;25.40;12.18;;;;;;;-0.84;84.00;100782.94;1758927;80;21169;-74
2022/11/20 07:10:11;;;;;;;28.60;13.50;;;;;;;-0.79;83.71;100782.11;1776321;80;21094;-74
2022/11/20 07:12:41;;;;;;;23.52;12.03;;;;;;;-0.76;83.42;100777.84;1782618;79;21581;-74
2022/11/20 07:15:10;;;;;;;23.07;12.05;;;;;;;-0.76;82.76;100772.94;1788048;79;21534;-75
2022/11/20 07:17:41;;;;;;;24.45;12.68;;;;;;;-0.74;82.21;100769.65;1769938;81;21146;-74
2022/11/20 07:20:13;;;;;;;24.12;12.80;;;;;;;-0.72;82.12;100765.02;1756688;81;21177;-74
2022/11/20 07:22:43;;;;;;;23.05;13.32;;;;;;;-0.71;81.59;100760.86;1738179;82;21098;-73
2022/11/20 07:25:12;;;;;;;23.15;12.53;;;;;;;-0.69;81.48;100752.67;1768683;81;21105;-73
2022/11/20 07:27:42;;;;;;;24.57;13.08;;;;;;;-0.69;80.75;100771.02;1738419;81;21574;-74
2022/11/20 07:30:14;;;;;;;24.43;12.95;;;;;;;-0.69;80.61;100768.33;1769884;81;21153;-74
2022/11/20 07:32:53;;;;;;;21.12;12.25;;;;;;;-0.67;80.45;100765.52;1767555;81;21183;-74
2022/11/20 07:35:23;;;;;;;21.87;13.03;;;;;;;-0.63;80.53;100769.72;1767455;81;21102;-74
2022/11/20 07:37:53;;;;;;;22.55;13.25;;;;;;;-0.64;79.75;100776.08;1769904;81;21121;-75
2022/11/20 07:40:22;;;;;;;21.70;12.63;;;;;;;-0.63;79.66;100779.63;1768205;81;21154;-76
2022/11/20 07:42:56;;;;;;;22.60;13.60;;;;;;;-0.63;79.35;100776.45;1770475;81;21177;-74
2022/11/20 07:45:25;;;;;;;24.35;13.05;;;;;;;-0.63;78.85;100780.48;1768304;81;21188;-73
2022/11/20 07:47:55;;;;;;;20.97;12.60;;;;;;;-0.66;78.62;100772.61;1767245;81;21169;-72
2022/11/20 07:50:23;;;;;;;21.23;12.70;;;;;;;-0.60;78.69;100765.94;1767413;81;21574;-72
2022/11/20 07:52:55;;;;;;;20.75;12.10;;;;;;;-0.53;78.77;100778.80;1767593;81;21110;-72
2022/11/20 07:55:24;;;;;;;24.45;13.78;;;;;;;-0.50;78.30;100786.64;1739078;81;21193;-73
2022/11/20 07:57:58;;;;;;;20.80;11.60;;;;;;;-0.54;77.91;100783.81;1768787;81;21114;-73
2022/11/20 08:00:27;;;;;;;18.67;10.35;;;;;;;-0.54;77.59;100770.36;1754843;81;21125;-72
2022/11/20 08:02:56;;;;;;;20.45;11.05;;;;;;;-0.52;77.68;100763.03;1768780;81;21198;-73
2022/11/20 08:05:25;;;;;;;21.50;11.80;;;;;;;-0.47;77.93;100761.33;1767601;81;21241;-72
2022/11/20 08:07:55;;;;;;;24.95;11.88;;;;;;;-0.43;77.86;100746.17;1768914;81;21126;-72
2022/11/20 08:10:25;;;;;;;21.23;11.22;;;;;;;-0.40;77.54;100749.11;1768018;81;21210;-70
2022/11/20 08:15:50;;;;;;;20.85;11.78;;;;;;;-0.41;77.05;100741.52;1757134;81;21170;-69
2022/11/20 08:18:20;;;;;;;21.20;11.28;;;;;;;-0.39;77.10;100746.30;1768091;81;21367;-69
2022/11/20 08:20:53;;;;;;;18.45;10.93;;;;;;;-0.35;77.48;100736.15;1767041;81;21415;-66
2022/11/20 08:23:23;;;;;;;18.52;10.80;;;;;;;-0.32;77.04;100732.73;1766128;81;21149;-68
2022/11/20 08:25:53;;;;;;;19.92;11.08;;;;;;;-0.30;77.18;100729.92;1767672;81;21126;-68
2022/11/20 08:28:22;;;;;;;19.23;11.05;;;;;;;-0.27;77.08;100726.13;1769984;81;21138;-68
2022/11/20 08:30:51;;;;;;;20.10;10.98;;;;;;;-0.30;76.57;100727.22;1753076;81;21126;-69
2022/11/20 08:33:21;;;;;;;21.85;11.08;;;;;;;-0.28;76.83;100735.19;1740368;81;21200;-69
2022/11/20 08:35:51;;;;;;;19.67;9.78;;;;;;;-0.25;76.84;100735.80;1769782;81;21138;-68
2022/11/20 08:38:21;;;;;;;18.15;9.45;;;;;;;-0.26;76.07;100733.23;1768960;81;21141;-69
2022/11/20 08:43:38;;;;;;;19.98;11.03;;;;;;;-0.25;75.98;100728.20;1767840;81;21596;-68
2022/11/20 08:46:07;;;;;;;18.02;10.65;;;;;;;-0.24;76.61;100731.27;1768937;81;21569;-68
2022/11/20 08:48:38;;;;;;;17.12;9.78;;;;;;;-0.21;76.96;100727.84;1767597;81;21556;-68
2022/11/20 08:51:08;;;;;;;19.82;10.32;;;;;;;-0.17;77.13;100727.97;1768815;81;21134;-67
2022/11/20 08:53:39;;;;;;;19.85;10.68;;;;;;;-0.12;77.12;100734.34;1769199;81;21125;-67
2022/11/20 08:56:09;;;;;;;19.15;11.43;;;;;;;-0.10;77.08;100737.28;1767181;81;21140;-67
2022/11/20 08:58:40;;;;;;;21.05;10.70;;;;;;;-0.10;76.94;100730.55;1768836;81;21193;-69
2022/11/20 09:01:12;;;;;;;17.10;9.55;;;;;;;-0.13;76.04;100729.94;1765139;81;21126;-67
2022/11/20 09:03:43;;;;;;;22.45;12.00;;;;;;;-0.15;76.17;100717.94;1768546;81;21587;-67
2022/11/20 09:06:13;;;;;;;17.05;10.28;;;;;;;-0.11;76.39;100710.47;1765847;81;21134;-69
2022/11/20 09:08:44;;;;;;;19.48;10.80;;;;;;;-0.10;76.45;100704.11;1750029;81;21185;-68
2022/11/20 09:11:14;;;;;;;19.82;11.45;;;;;;;-0.11;76.19;100678.16;1744052;81;21098;-67
2022/11/20 09:13:44;;;;;;;19.82;10.78;;;;;;;-0.09;76.38;100679.75;1759573;81;21709;-66
2022/11/20 09:16:14;;;;;;;24.23;12.80;;;;;;;-0.09;76.58;100685.63;1759654;81;21553;-69
2022/11/20 09:18:44;;;;;;;20.70;11.43;;;;;;;-0.10;77.09;100689.30;1729514;82;21217;-66
2022/11/20 09:21:14;;;;;;;20.85;11.25;;;;;;;-0.10;77.32;100692.84;1739966;82;21608;-67
2022/11/20 09:23:43;;;;;;;18.27;10.82;;;;;;;-0.09;77.66;100691.86;1760644;81;21146;-67
2022/11/20 09:26:14;;;;;;;19.77;10.45;;;;;;;-0.06;77.83;100684.03;1735926;82;21134;-67
2022/11/20 09:28:45;;;;;;;17.90;10.20;;;;;;;-0.06;77.81;100686.23;1759970;81;21161;-68
2022/11/20 09:31:22;;;;;;;21.17;10.75;;;;;;;-0.04;77.94;100684.27;1754606;81;21162;-67
2022/11/20 09:33:51;;;;;;;18.87;10.38;;;;;;;-0.03;77.85;100673.87;1760603;81;21193;-66
2022/11/20 09:36:20;;;;;;;21.50;10.65;;;;;;;-0.01;77.98;100664.31;1741755;82;21225;-66
2022/11/20 09:38:50;;;;;;;18.07;10.50;;;;;;;0.02;77.99;100656.51;1715230;82;21586;-66
2022/11/20 09:42:04;;;;;;;18.92;10.63;;;;;;;0.02;77.92;100657.37;1728326;82;21175;-67
2022/11/20 09:45:03;;;;;;;21.33;10.88;;;;;;;0.01;77.78;100654.80;1713268;82;21146;-66
2022/11/20 09:48:12;;;;;;;19.48;10.93;;;;;;;-0.02;78.03;100653.17;1728133;82;21119;-67
2022/11/20 09:51:22;;;;;;;18.57;10.65;;;;;;;-0.04;78.24;100651.09;1742643;82;21170;-66
2022/11/20 09:54:22;;;;;;;20.20;9.80;;;;;;;-0.02;78.37;100646.44;1759672;81;21137;-64
2022/11/20 09:57:00;;;;;;;20.17;11.75;;;;;;;0.02;78.55;100641.20;1756889;81;21232;-70
2022/11/20 09:59:44;;;;;;;21.95;10.53;;;;;;;-0.01;78.69;100633.34;1758879;81;21121;-68
2022/11/20 10:02:33;;;;;;;16.93;9.98;;;;;;;0.02;79.14;100638.52;1722965;82;21131;-71
2022/11/20 10:05:27;;;;;;;18.50;9.73;;;;;;;0.05;79.18;100635.57;1732142;82;21420;-71
2022/11/20 10:08:01;;;;;;;17.92;10.45;;;;;;;0.07;79.16;100628.70;1715068;82;21191;-69
2022/11/20 10:10:44;;;;;;;;;;;;;;;0.06;79.31;100625.16;1757473;81;21112;-70
2022/11/20 10:13:40;;;;;;;19.00;9.90;;;;;;;0.07;79.09;100626.02;1775143;80;20227;-70
2022/11/20 10:16:32;;;;;;;23.40;11.63;;;;;;;0.09;79.35;100619.52;1785002;80;21075;-71
2022/11/20 10:19:25;;;;;;;24.00;12.68;;;;;;;0.12;79.80;100615.23;1781881;79;21193;-72
2022/11/20 10:22:24;;;;;;;28.23;11.68;;;;;;;0.13;79.59;100603.47;1781540;80;21517;-71
2022/11/20 10:25:25;;;;;;;23.05;12.05;;;;;;;0.14;79.63;100599.80;1784218;78;21577;-70
2022/11/20 10:28:14;;;;;;;18.62;10.68;;;;;;;0.17;79.57;100596.84;1781045;80;21169;-72
2022/11/20 10:30:44;;;;;;;19.67;10.60;;;;;;;0.17;79.46;100594.16;1789721;80;21170;-73
2022/11/20 10:33:24;;;;;;;20.40;11.40;;;;;;;0.20;79.67;100584.47;1778666;79;21146;-72
2022/11/20 10:35:59;;;;;;;23.57;11.55;;;;;;;0.20;79.55;100581.77;1771676;80;21169;-70
2022/11/20 10:38:41;;;;;;;21.68;12.15;;;;;;;0.19;79.44;100585.94;1774065;80;21075;-70
2022/11/20 10:41:26;;;;;;;20.52;11.50;;;;;;;0.17;79.64;100579.83;1781518;79;21187;-69
2022/11/20 10:44:15;;;;;;;20.05;11.75;;;;;;;0.18;80.02;100581.05;1775305;79;21141;-71
2022/11/20 10:46:45;;;;;;;21.62;12.53;;;;;;;0.21;80.25;100586.67;1785226;80;21189;-68
2022/11/20 10:49:18;;;;;;;18.60;11.65;;;;;;;0.22;80.54;100593.28;1788313;79;21648;-63
2022/11/20 10:52:27;;;;;;;22.40;12.13;;;;;;;0.25;80.89;100590.33;1781757;80;21109;-64
2022/11/20 10:55:30;;;;;;;25.23;13.68;;;;;;;0.27;80.94;100590.20;1787793;80;21107;-66
2022/11/20 10:58:25;;;;;;;20.00;11.83;;;;;;;0.25;81.21;100588.13;1782200;80;21534;-65
2022/11/20 11:03:40;;;;;;;18.60;11.53;;;;;;;0.35;81.70;100576.09;1758605;81;21133;-66
2022/11/20 11:06:33;;;;;;;20.17;12.05;;;;;;;0.37;81.64;100572.29;1761944;81;21102;-67
2022/11/20 11:09:10;;;;;;;20.52;11.57;;;;;;;0.35;81.71;100568.87;1786644;79;21111;-66
2022/11/20 11:11:41;;;;;;;17.73;10.40;;;;;;;0.35;81.75;100554.05;1776074;80;21134;-66
2022/11/20 11:14:15;;;;;;;18.87;10.78;;;;;;;0.35;81.89;100563.97;1764440;81;21102;-69
2022/11/20 11:16:54;;;;;;;19.80;11.68;;;;;;;0.27;81.64;100570.00;1763397;81;21609;-68
2022/11/20 11:19:24;;;;;;;22.30;12.53;;;;;;;0.19;81.84;100569.28;1763130;81;21197;-68
2022/11/20 11:21:56;;;;;;;22.05;12.53;;;;;;;0.15;82.13;100554.85;1784638;80;21121;-68
2022/11/20 11:24:28;;;;;;;20.50;11.55;;;;;;;0.14;82.57;100564.77;1789797;80;21090;-68
2022/11/20 11:27:05;;;;;;;18.87;12.00;;;;;;;0.13;82.70;100560.86;1787466;80;21082;-67
2022/11/20 11:29:34;;;;;;;18.73;11.65;;;;;;;0.12;82.99;100549.23;1789751;80;21533;-68
2022/11/20 11:32:10;;;;;;;20.72;12.65;;;;;;;0.17;83.24;100543.45;1789956;80;21133;-68
2022/11/20 11:34:40;;;;;;;22.42;12.53;;;;;;;0.19;83.35;100540.14;1778205;80;21168;-66
2022/11/20 11:37:21;;;;;;;21.62;12.47;;;;;;;0.20;83.29;100549.44;1790084;80;21162;-69
2022/11/20 11:39:51;;;;;;;21.20;12.03;;;;;;;0.18;83.41;100555.45;1779864;80;21117;-69
2022/11/20 11:42:22;;;;;;;21.15;11.50;;;;;;;0.16;83.54;100541.25;1786478;80;21565;-69
2022/11/20 11:45:07;;;;;;;18.55;11.73;;;;;;;0.20;83.68;100543.20;1790185;80;21090;-68
2022/11/20 11:47:46;;;;;;;21.77;11.08;;;;;;;0.22;83.76;100552.87;1789960;80;21118;-67
2022/11/20 11:50:24;;;;;;;23.77;12.70;;;;;;;0.19;83.57;100543.69;1790073;80;21117;-67